sensor_id;sensor_type;location;lat;lon;timestamp;temperature;humidity
20066;DHT22;10193;48.884;9.182;2023-07-24T00:02:18;21.30;51.20
20066;DHT22;10193;48.884;9.182;2023-07-24T00:04:44;21.30;51.80
20066;DHT22;10193;48.884;9.182;2023-07-24T00:07:12;21.30;52.30
20066;DHT22;10193;48.884;9.182;2023-07-24T00:09:39;21.20;52.80
20066;DHT22;10193;48.884;9.182;2023-07-24T00:12:06;21.30;53.40
20066;DHT22;10193;48.884;9.182;2023-07-24T00:14:33;21.20;53.30
20066;DHT22;10193;48.884;9.182;2023-07-24T00:17:00;21.30;53.50
20066;DHT22;10193;48.884;9.182;2023-07-24T00:19:27;21.20;53.80
20066;DHT22;10193;48.884;9.182;2023-07-24T00:21:53;21.20;53.90
20066;DHT22;10193;48.884;9.182;2023-07-24T00:24:21;21.20;54.90
20066;DHT22;10193;48.884;9.182;2023-07-24T00:26:48;21.20;54.60
20066;DHT22;10193;48.884;9.182;2023-07-24T00:29:15;21.10;54.50
20066;DHT22;10193;48.884;9.182;2023-07-24T00:31:41;21.10;54.70
20066;DHT22;10193;48.884;9.182;2023-07-24T00:34:08;21.10;55.00
20066;DHT22;10193;48.884;9.182;2023-07-24T00:36:34;21.00;55.20
20066;DHT22;10193;48.884;9.182;2023-07-24T00:39:01;21.00;55.40
20066;DHT22;10193;48.884;9.182;2023-07-24T00:41:29;20.90;55.40
20066;DHT22;10193;48.884;9.182;2023-07-24T00:43:56;20.90;55.80
20066;DHT22;10193;48.884;9.182;2023-07-24T00:46:23;20.90;56.00
20066;DHT22;10193;48.884;9.182;2023-07-24T00:48:50;20.90;56.00
20066;DHT22;10193;48.884;9.182;2023-07-24T00:51:17;20.90;56.30
20066;DHT22;10193;48.884;9.182;2023-07-24T00:53:44;20.80;56.50
20066;DHT22;10193;48.884;9.182;2023-07-24T00:56:13;20.80;56.70
20066;DHT22;10193;48.884;9.182;2023-07-24T00:58:41;20.80;56.80
20066;DHT22;10193;48.884;9.182;2023-07-24T01:01:08;20.80;57.00
20066;DHT22;10193;48.884;9.182;2023-07-24T01:03:37;20.70;57.10
20066;DHT22;10193;48.884;9.182;2023-07-24T01:06:04;20.70;57.20
20066;DHT22;10193;48.884;9.182;2023-07-24T01:08:31;20.70;57.40
20066;DHT22;10193;48.884;9.182;2023-07-24T01:11:02;20.70;57.50
20066;DHT22;10193;48.884;9.182;2023-07-24T01:13:32;20.70;57.70
20066;DHT22;10193;48.884;9.182;2023-07-24T01:16:08;20.70;57.60
20066;DHT22;10193;48.884;9.182;2023-07-24T01:18:37;20.60;57.80
20066;DHT22;10193;48.884;9.182;2023-07-24T01:21:06;20.60;57.70
20066;DHT22;10193;48.884;9.182;2023-07-24T01:23:44;20.60;57.90
20066;DHT22;10193;48.884;9.182;2023-07-24T01:26:17;20.50;58.20
20066;DHT22;10193;48.884;9.182;2023-07-24T01:28:44;20.40;57.80
20066;DHT22;10193;48.884;9.182;2023-07-24T01:31:11;20.40;57.80
20066;DHT22;10193;48.884;9.182;2023-07-24T01:33:38;20.40;58.00
20066;DHT22;10193;48.884;9.182;2023-07-24T01:36:05;20.30;58.20
20066;DHT22;10193;48.884;9.182;2023-07-24T01:38:34;20.30;58.40
20066;DHT22;10193;48.884;9.182;2023-07-24T01:41:01;20.30;58.60
20066;DHT22;10193;48.884;9.182;2023-07-24T01:43:30;20.20;58.70
20066;DHT22;10193;48.884;9.182;2023-07-24T01:45:57;20.20;59.00
20066;DHT22;10193;48.884;9.182;2023-07-24T01:48:24;20.20;59.10
20066;DHT22;10193;48.884;9.182;2023-07-24T01:50:51;20.20;59.10
20066;DHT22;10193;48.884;9.182;2023-07-24T01:53:17;20.20;59.20
20066;DHT22;10193;48.884;9.182;2023-07-24T01:55:44;20.30;59.40
20066;DHT22;10193;48.884;9.182;2023-07-24T01:58:11;20.20;60.00
20066;DHT22;10193;48.884;9.182;2023-07-24T02:00:38;20.20;59.50
20066;DHT22;10193;48.884;9.182;2023-07-24T02:03:05;20.20;59.60
20066;DHT22;10193;48.884;9.182;2023-07-24T02:05:32;20.20;59.70
20066;DHT22;10193;48.884;9.182;2023-07-24T02:07:59;20.30;60.00
20066;DHT22;10193;48.884;9.182;2023-07-24T02:10:26;20.10;59.90
20066;DHT22;10193;48.884;9.182;2023-07-24T02:12:53;20.20;60.10
20066;DHT22;10193;48.884;9.182;2023-07-24T02:15:19;20.20;60.10
20066;DHT22;10193;48.884;9.182;2023-07-24T02:17:47;20.20;60.20
20066;DHT22;10193;48.884;9.182;2023-07-24T02:20:14;20.20;60.40
20066;DHT22;10193;48.884;9.182;2023-07-24T02:22:41;20.20;60.40
20066;DHT22;10193;48.884;9.182;2023-07-24T02:25:08;20.20;60.40
20066;DHT22;10193;48.884;9.182;2023-07-24T02:27:35;20.20;60.60
20066;DHT22;10193;48.884;9.182;2023-07-24T02:30:02;20.20;60.70
20066;DHT22;10193;48.884;9.182;2023-07-24T02:32:29;20.20;60.80
20066;DHT22;10193;48.884;9.182;2023-07-24T02:34:57;20.20;60.90
20066;DHT22;10193;48.884;9.182;2023-07-24T02:37:23;20.20;61.00
20066;DHT22;10193;48.884;9.182;2023-07-24T02:39:51;20.30;61.20
20066;DHT22;10193;48.884;9.182;2023-07-24T02:42:18;20.30;61.20
20066;DHT22;10193;48.884;9.182;2023-07-24T02:44:45;20.30;61.20
20066;DHT22;10193;48.884;9.182;2023-07-24T02:47:12;20.30;61.00
20066;DHT22;10193;48.884;9.182;2023-07-24T02:49:38;20.40;61.00
20066;DHT22;10193;48.884;9.182;2023-07-24T02:52:07;20.30;60.80
20066;DHT22;10193;48.884;9.182;2023-07-24T02:54:33;20.30;60.80
20066;DHT22;10193;48.884;9.182;2023-07-24T02:57:00;20.40;60.80
20066;DHT22;10193;48.884;9.182;2023-07-24T02:59:29;20.40;60.80
20066;DHT22;10193;48.884;9.182;2023-07-24T03:01:57;20.40;60.80
20066;DHT22;10193;48.884;9.182;2023-07-24T03:04:24;20.40;60.80
20066;DHT22;10193;48.884;9.182;2023-07-24T03:06:50;20.40;60.80
20066;DHT22;10193;48.884;9.182;2023-07-24T03:09:18;20.40;60.70
20066;DHT22;10193;48.884;9.182;2023-07-24T03:11:45;20.40;60.70
20066;DHT22;10193;48.884;9.182;2023-07-24T03:14:11;20.40;60.60
20066;DHT22;10193;48.884;9.182;2023-07-24T03:16:38;20.40;60.60
20066;DHT22;10193;48.884;9.182;2023-07-24T03:19:05;20.30;60.50
20066;DHT22;10193;48.884;9.182;2023-07-24T03:21:31;20.30;60.40
20066;DHT22;10193;48.884;9.182;2023-07-24T03:23:58;20.30;60.60
20066;DHT22;10193;48.884;9.182;2023-07-24T03:26:26;20.30;60.60
20066;DHT22;10193;48.884;9.182;2023-07-24T03:28:53;20.30;60.60
20066;DHT22;10193;48.884;9.182;2023-07-24T03:31:19;20.20;60.40
20066;DHT22;10193;48.884;9.182;2023-07-24T03:33:46;20.30;60.50
20066;DHT22;10193;48.884;9.182;2023-07-24T03:36:12;20.20;60.50
20066;DHT22;10193;48.884;9.182;2023-07-24T03:38:39;20.20;60.70
20066;DHT22;10193;48.884;9.182;2023-07-24T03:41:06;20.20;60.70
20066;DHT22;10193;48.884;9.182;2023-07-24T03:43:34;20.20;60.80
20066;DHT22;10193;48.884;9.182;2023-07-24T03:46:00;20.20;60.70
20066;DHT22;10193;48.884;9.182;2023-07-24T03:48:27;20.20;60.70
20066;DHT22;10193;48.884;9.182;2023-07-24T03:50:58;20.20;60.60
20066;DHT22;10193;48.884;9.182;2023-07-24T03:53:25;20.30;60.80
20066;DHT22;10193;48.884;9.182;2023-07-24T03:55:52;20.20;60.70
20066;DHT22;10193;48.884;9.182;2023-07-24T03:58:19;20.30;61.50
20066;DHT22;10193;48.884;9.182;2023-07-24T04:00:47;20.30;60.80
20066;DHT22;10193;48.884;9.182;2023-07-24T04:03:14;20.30;60.70
20066;DHT22;10193;48.884;9.182;2023-07-24T04:05:40;20.30;60.70
20066;DHT22;10193;48.884;9.182;2023-07-24T04:08:07;20.30;60.90
20066;DHT22;10193;48.884;9.182;2023-07-24T04:10:34;20.30;61.00
20066;DHT22;10193;48.884;9.182;2023-07-24T04:13:00;20.30;60.90
20066;DHT22;10193;48.884;9.182;2023-07-24T04:15:27;20.40;61.10
20066;DHT22;10193;48.884;9.182;2023-07-24T04:17:55;20.40;61.20
20066;DHT22;10193;48.884;9.182;2023-07-24T04:20:22;20.40;61.30
20066;DHT22;10193;48.884;9.182;2023-07-24T04:22:48;20.40;61.40
20066;DHT22;10193;48.884;9.182;2023-07-24T04:25:15;20.50;61.50
20066;DHT22;10193;48.884;9.182;2023-07-24T04:27:42;20.50;61.40
20066;DHT22;10193;48.884;9.182;2023-07-24T04:30:09;20.50;61.50
20066;DHT22;10193;48.884;9.182;2023-07-24T04:32:36;20.60;61.60
20066;DHT22;10193;48.884;9.182;2023-07-24T04:35:04;20.60;61.50
20066;DHT22;10193;48.884;9.182;2023-07-24T04:37:31;20.70;61.60
20066;DHT22;10193;48.884;9.182;2023-07-24T04:39:58;20.70;61.60
20066;DHT22;10193;48.884;9.182;2023-07-24T04:42:25;20.70;61.60
20066;DHT22;10193;48.884;9.182;2023-07-24T04:44:51;20.80;61.60
20066;DHT22;10193;48.884;9.182;2023-07-24T04:47:18;20.80;61.70
20066;DHT22;10193;48.884;9.182;2023-07-24T04:49:45;20.90;62.00
20066;DHT22;10193;48.884;9.182;2023-07-24T04:52:13;21.00;62.10
20066;DHT22;10193;48.884;9.182;2023-07-24T04:54:39;21.00;61.90
20066;DHT22;10193;48.884;9.182;2023-07-24T04:57:06;21.10;61.90
20066;DHT22;10193;48.884;9.182;2023-07-24T04:59:33;21.20;62.00
20066;DHT22;10193;48.884;9.182;2023-07-24T05:01:59;21.30;62.00
20066;DHT22;10193;48.884;9.182;2023-07-24T05:04:26;21.30;61.50
20066;DHT22;10193;48.884;9.182;2023-07-24T05:06:53;21.40;61.40
20066;DHT22;10193;48.884;9.182;2023-07-24T05:09:21;21.40;61.30
20066;DHT22;10193;48.884;9.182;2023-07-24T05:11:47;21.50;61.20
20066;DHT22;10193;48.884;9.182;2023-07-24T05:14:14;21.50;61.20
20066;DHT22;10193;48.884;9.182;2023-07-24T05:16:41;21.50;61.10
20066;DHT22;10193;48.884;9.182;2023-07-24T05:19:07;21.50;61.10
20066;DHT22;10193;48.884;9.182;2023-07-24T05:21:34;21.50;61.10
20066;DHT22;10193;48.884;9.182;2023-07-24T05:24:01;21.60;62.00
20066;DHT22;10193;48.884;9.182;2023-07-24T05:26:29;21.60;61.20
20066;DHT22;10193;48.884;9.182;2023-07-24T05:28:55;21.60;61.30
20066;DHT22;10193;48.884;9.182;2023-07-24T05:31:22;21.70;61.40
20066;DHT22;10193;48.884;9.182;2023-07-24T05:33:48;21.70;61.30
20066;DHT22;10193;48.884;9.182;2023-07-24T05:36:15;21.70;61.20
20066;DHT22;10193;48.884;9.182;2023-07-24T05:38:42;21.80;61.20
20066;DHT22;10193;48.884;9.182;2023-07-24T05:41:08;21.80;61.30
20066;DHT22;10193;48.884;9.182;2023-07-24T05:43:36;21.80;61.30
20066;DHT22;10193;48.884;9.182;2023-07-24T05:46:03;21.80;61.30
20066;DHT22;10193;48.884;9.182;2023-07-24T05:48:30;21.80;61.30
20066;DHT22;10193;48.884;9.182;2023-07-24T05:50:56;21.80;61.30
20066;DHT22;10193;48.884;9.182;2023-07-24T05:53:23;21.90;61.40
20066;DHT22;10193;48.884;9.182;2023-07-24T05:55:56;21.90;61.20
20066;DHT22;10193;48.884;9.182;2023-07-24T05:58:24;21.90;61.20
20066;DHT22;10193;48.884;9.182;2023-07-24T06:00:52;21.90;60.90
20066;DHT22;10193;48.884;9.182;2023-07-24T06:03:18;21.90;61.00
20066;DHT22;10193;48.884;9.182;2023-07-24T06:05:45;21.90;61.00
20066;DHT22;10193;48.884;9.182;2023-07-24T06:08:12;21.90;61.00
20066;DHT22;10193;48.884;9.182;2023-07-24T06:10:38;22.00;61.20
20066;DHT22;10193;48.884;9.182;2023-07-24T06:13:05;22.00;62.00
20066;DHT22;10193;48.884;9.182;2023-07-24T06:15:32;22.00;61.20
20066;DHT22;10193;48.884;9.182;2023-07-24T06:18:00;22.00;61.30
20066;DHT22;10193;48.884;9.182;2023-07-24T06:20:27;22.00;61.30
20066;DHT22;10193;48.884;9.182;2023-07-24T06:22:53;22.10;61.40
20066;DHT22;10193;48.884;9.182;2023-07-24T06:25:20;22.10;61.30
20066;DHT22;10193;48.884;9.182;2023-07-24T06:27:46;22.20;61.30
20066;DHT22;10193;48.884;9.182;2023-07-24T06:30:13;22.20;61.30
20066;DHT22;10193;48.884;9.182;2023-07-24T06:32:40;22.30;61.30
20066;DHT22;10193;48.884;9.182;2023-07-24T06:35:08;22.30;61.20
20066;DHT22;10193;48.884;9.182;2023-07-24T06:37:35;22.30;61.20
20066;DHT22;10193;48.884;9.182;2023-07-24T06:40:02;22.40;61.30
20066;DHT22;10193;48.884;9.182;2023-07-24T06:42:28;22.40;61.40
20066;DHT22;10193;48.884;9.182;2023-07-24T06:44:55;22.50;62.30
20066;DHT22;10193;48.884;9.182;2023-07-24T06:47:22;22.50;61.60
20066;DHT22;10193;48.884;9.182;2023-07-24T06:49:48;22.50;61.40
20066;DHT22;10193;48.884;9.182;2023-07-24T06:52:16;22.60;61.50
20066;DHT22;10193;48.884;9.182;2023-07-24T06:54:43;22.60;61.50
20066;DHT22;10193;48.884;9.182;2023-07-24T06:57:10;22.70;61.60
20066;DHT22;10193;48.884;9.182;2023-07-24T06:59:37;22.70;61.60
20066;DHT22;10193;48.884;9.182;2023-07-24T07:02:03;22.80;61.80
20066;DHT22;10193;48.884;9.182;2023-07-24T07:04:30;22.90;61.90
20066;DHT22;10193;48.884;9.182;2023-07-24T07:06:57;22.90;62.10
20066;DHT22;10193;48.884;9.182;2023-07-24T07:09:25;23.10;62.30
20066;DHT22;10193;48.884;9.182;2023-07-24T07:11:51;23.10;61.90
20066;DHT22;10193;48.884;9.182;2023-07-24T07:14:18;23.20;61.80
20066;DHT22;10193;48.884;9.182;2023-07-24T07:16:45;23.30;61.70
20066;DHT22;10193;48.884;9.182;2023-07-24T07:19:13;23.30;61.40
20066;DHT22;10193;48.884;9.182;2023-07-24T07:21:39;23.40;61.30
20066;DHT22;10193;48.884;9.182;2023-07-24T07:24:06;23.50;61.20
20066;DHT22;10193;48.884;9.182;2023-07-24T07:26:34;23.50;61.10
20066;DHT22;10193;48.884;9.182;2023-07-24T07:29:01;23.60;61.20
20066;DHT22;10193;48.884;9.182;2023-07-24T07:31:27;23.60;61.00
20066;DHT22;10193;48.884;9.182;2023-07-24T07:33:54;23.70;60.90
20066;DHT22;10193;48.884;9.182;2023-07-24T07:36:21;23.70;60.90
20066;DHT22;10193;48.884;9.182;2023-07-24T07:38:48;23.70;60.70
20066;DHT22;10193;48.884;9.182;2023-07-24T07:41:14;23.70;60.90
20066;DHT22;10193;48.884;9.182;2023-07-24T07:43:42;23.80;60.90
20066;DHT22;10193;48.884;9.182;2023-07-24T07:46:09;23.80;60.70
20066;DHT22;10193;48.884;9.182;2023-07-24T07:48:36;23.90;60.90
20066;DHT22;10193;48.884;9.182;2023-07-24T07:51:03;23.90;60.60
20066;DHT22;10193;48.884;9.182;2023-07-24T07:53:29;23.90;60.20
20066;DHT22;10193;48.884;9.182;2023-07-24T07:55:57;23.90;59.80
20066;DHT22;10193;48.884;9.182;2023-07-24T07:58:25;23.90;59.80
20066;DHT22;10193;48.884;9.182;2023-07-24T08:00:53;23.90;59.60
20066;DHT22;10193;48.884;9.182;2023-07-24T08:03:19;23.90;59.50
20066;DHT22;10193;48.884;9.182;2023-07-24T08:05:46;23.90;59.60
20066;DHT22;10193;48.884;9.182;2023-07-24T08:08:13;23.90;59.80
20066;DHT22;10193;48.884;9.182;2023-07-24T08:10:40;23.90;60.00
20066;DHT22;10193;48.884;9.182;2023-07-24T08:13:07;23.90;60.10
20066;DHT22;10193;48.884;9.182;2023-07-24T08:15:34;23.90;61.20
20066;DHT22;10193;48.884;9.182;2023-07-24T08:18:04;23.90;60.50
20066;DHT22;10193;48.884;9.182;2023-07-24T08:20:31;23.90;60.40
20066;DHT22;10193;48.884;9.182;2023-07-24T08:22:58;23.90;60.10
20066;DHT22;10193;48.884;9.182;2023-07-24T08:25:25;23.90;60.00
20066;DHT22;10193;48.884;9.182;2023-07-24T08:27:51;23.80;59.90
20066;DHT22;10193;48.884;9.182;2023-07-24T08:30:18;23.80;60.00
20066;DHT22;10193;48.884;9.182;2023-07-24T08:32:45;23.70;60.10
20066;DHT22;10193;48.884;9.182;2023-07-24T08:35:13;23.70;60.40
20066;DHT22;10193;48.884;9.182;2023-07-24T08:37:42;23.70;60.60
20066;DHT22;10193;48.884;9.182;2023-07-24T08:40:10;23.60;60.70
20066;DHT22;10193;48.884;9.182;2023-07-24T08:42:38;23.50;60.80
20066;DHT22;10193;48.884;9.182;2023-07-24T08:45:09;23.50;61.10
20066;DHT22;10193;48.884;9.182;2023-07-24T08:47:38;23.50;61.60
20066;DHT22;10193;48.884;9.182;2023-07-24T08:50:07;23.50;62.10
20066;DHT22;10193;48.884;9.182;2023-07-24T08:52:38;23.50;62.70
20066;DHT22;10193;48.884;9.182;2023-07-24T08:55:05;23.50;63.10
20066;DHT22;10193;48.884;9.182;2023-07-24T08:57:32;23.50;63.40
20066;DHT22;10193;48.884;9.182;2023-07-24T08:59:59;23.50;63.60
20066;DHT22;10193;48.884;9.182;2023-07-24T09:02:30;23.50;63.70
20066;DHT22;10193;48.884;9.182;2023-07-24T09:04:56;23.60;64.10
20066;DHT22;10193;48.884;9.182;2023-07-24T09:07:23;23.70;64.50
20066;DHT22;10193;48.884;9.182;2023-07-24T09:09:51;23.70;65.00
20066;DHT22;10193;48.884;9.182;2023-07-24T09:12:18;23.80;65.40
20066;DHT22;10193;48.884;9.182;2023-07-24T09:14:45;23.90;65.70
20066;DHT22;10193;48.884;9.182;2023-07-24T09:17:12;24.00;66.90
20066;DHT22;10193;48.884;9.182;2023-07-24T09:19:38;24.10;66.20
20066;DHT22;10193;48.884;9.182;2023-07-24T09:22:10;24.20;66.40
20066;DHT22;10193;48.884;9.182;2023-07-24T09:24:37;24.30;66.20
20066;DHT22;10193;48.884;9.182;2023-07-24T09:27:06;24.50;66.00
20066;DHT22;10193;48.884;9.182;2023-07-24T09:29:34;24.70;65.80
20066;DHT22;10193;48.884;9.182;2023-07-24T09:32:00;24.80;65.20
20066;DHT22;10193;48.884;9.182;2023-07-24T09:34:27;24.90;64.90
20066;DHT22;10193;48.884;9.182;2023-07-24T09:36:54;25.00;64.50
20066;DHT22;10193;48.884;9.182;2023-07-24T09:39:23;25.20;64.40
20066;DHT22;10193;48.884;9.182;2023-07-24T09:41:51;25.30;64.30
20066;DHT22;10193;48.884;9.182;2023-07-24T09:44:19;25.40;64.00
20066;DHT22;10193;48.884;9.182;2023-07-24T09:46:46;25.50;63.70
20066;DHT22;10193;48.884;9.182;2023-07-24T09:49:13;25.60;63.70
20066;DHT22;10193;48.884;9.182;2023-07-24T09:51:41;25.70;63.50
20066;DHT22;10193;48.884;9.182;2023-07-24T09:54:14;25.80;63.10
20066;DHT22;10193;48.884;9.182;2023-07-24T09:56:42;25.90;63.20
20066;DHT22;10193;48.884;9.182;2023-07-24T09:59:09;26.00;62.80
20066;DHT22;10193;48.884;9.182;2023-07-24T10:01:38;26.00;62.30
20066;DHT22;10193;48.884;9.182;2023-07-24T10:04:06;26.00;61.80
20066;DHT22;10193;48.884;9.182;2023-07-24T10:06:33;26.10;61.60
20066;DHT22;10193;48.884;9.182;2023-07-24T10:09:00;26.00;61.40
20066;DHT22;10193;48.884;9.182;2023-07-24T10:11:28;26.00;61.20
20066;DHT22;10193;48.884;9.182;2023-07-24T10:13:55;26.00;61.20
20066;DHT22;10193;48.884;9.182;2023-07-24T10:16:21;25.90;61.20
20066;DHT22;10193;48.884;9.182;2023-07-24T10:18:49;25.90;61.20
20066;DHT22;10193;48.884;9.182;2023-07-24T10:21:16;25.80;61.00
20066;DHT22;10193;48.884;9.182;2023-07-24T10:23:44;25.70;61.00
20066;DHT22;10193;48.884;9.182;2023-07-24T10:26:12;25.60;61.10
20066;DHT22;10193;48.884;9.182;2023-07-24T10:28:40;25.50;61.20
20066;DHT22;10193;48.884;9.182;2023-07-24T10:31:18;25.40;61.30
20066;DHT22;10193;48.884;9.182;2023-07-24T10:33:45;25.30;61.40
20066;DHT22;10193;48.884;9.182;2023-07-24T10:36:16;25.20;61.40
20066;DHT22;10193;48.884;9.182;2023-07-24T10:38:46;25.20;61.60
20066;DHT22;10193;48.884;9.182;2023-07-24T10:41:13;25.10;61.70
20066;DHT22;10193;48.884;9.182;2023-07-24T10:43:41;25.00;61.80
20066;DHT22;10193;48.884;9.182;2023-07-24T10:46:08;25.00;62.00
20066;DHT22;10193;48.884;9.182;2023-07-24T10:48:35;24.90;62.10
20066;DHT22;10193;48.884;9.182;2023-07-24T10:51:06;24.80;62.20
20066;DHT22;10193;48.884;9.182;2023-07-24T10:53:36;24.70;62.40
20066;DHT22;10193;48.884;9.182;2023-07-24T10:56:03;24.70;62.20
20066;DHT22;10193;48.884;9.182;2023-07-24T10:58:30;24.60;62.20
20066;DHT22;10193;48.884;9.182;2023-07-24T11:00:58;24.50;62.20
20066;DHT22;10193;48.884;9.182;2023-07-24T11:03:25;24.50;62.50
20066;DHT22;10193;48.884;9.182;2023-07-24T11:05:52;24.40;62.60
20066;DHT22;10193;48.884;9.182;2023-07-24T11:08:20;24.20;62.60
20066;DHT22;10193;48.884;9.182;2023-07-24T11:10:49;24.10;62.70
20066;DHT22;10193;48.884;9.182;2023-07-24T11:13:17;24.10;63.10
20066;DHT22;10193;48.884;9.182;2023-07-24T11:15:44;24.00;63.30
20066;DHT22;10193;48.884;9.182;2023-07-24T11:18:11;23.90;63.40
20066;DHT22;10193;48.884;9.182;2023-07-24T11:20:44;23.80;63.60
20066;DHT22;10193;48.884;9.182;2023-07-24T11:23:11;23.70;64.10
20066;DHT22;10193;48.884;9.182;2023-07-24T11:25:38;23.70;63.90
20066;DHT22;10193;48.884;9.182;2023-07-24T11:28:09;23.70;64.50
20066;DHT22;10193;48.884;9.182;2023-07-24T11:30:36;23.60;64.90
20066;DHT22;10193;48.884;9.182;2023-07-24T11:33:05;23.50;64.80
20066;DHT22;10193;48.884;9.182;2023-07-24T11:35:32;23.50;65.10
20066;DHT22;10193;48.884;9.182;2023-07-24T11:38:00;23.40;65.00
20066;DHT22;10193;48.884;9.182;2023-07-24T11:40:35;23.40;65.10
20066;DHT22;10193;48.884;9.182;2023-07-24T11:43:02;23.40;65.70
20066;DHT22;10193;48.884;9.182;2023-07-24T11:45:30;23.30;65.50
20066;DHT22;10193;48.884;9.182;2023-07-24T11:47:59;23.40;66.20
20066;DHT22;10193;48.884;9.182;2023-07-24T11:50:26;23.40;66.90
20066;DHT22;10193;48.884;9.182;2023-07-24T11:52:52;23.50;67.70
20066;DHT22;10193;48.884;9.182;2023-07-24T11:55:30;23.50;69.30
20066;DHT22;10193;48.884;9.182;2023-07-24T11:57:58;23.70;69.40
20066;DHT22;10193;48.884;9.182;2023-07-24T12:00:25;23.80;69.20
20066;DHT22;10193;48.884;9.182;2023-07-24T12:02:58;24.00;68.70
20066;DHT22;10193;48.884;9.182;2023-07-24T12:05:25;24.10;68.00
20066;DHT22;10193;48.884;9.182;2023-07-24T12:07:54;24.20;67.10
20066;DHT22;10193;48.884;9.182;2023-07-24T12:10:25;24.30;66.60
20066;DHT22;10193;48.884;9.182;2023-07-24T12:12:54;24.40;65.70
20066;DHT22;10193;48.884;9.182;2023-07-24T12:15:24;24.40;65.10
20066;DHT22;10193;48.884;9.182;2023-07-24T12:17:53;24.30;64.70
20066;DHT22;10193;48.884;9.182;2023-07-24T12:20:20;24.30;64.60
20066;DHT22;10193;48.884;9.182;2023-07-24T12:22:46;24.20;64.30
20066;DHT22;10193;48.884;9.182;2023-07-24T12:25:13;24.10;64.10
20066;DHT22;10193;48.884;9.182;2023-07-24T12:27:40;24.10;64.10
20066;DHT22;10193;48.884;9.182;2023-07-24T12:30:08;24.00;64.10
20066;DHT22;10193;48.884;9.182;2023-07-24T12:32:34;23.90;64.20
20066;DHT22;10193;48.884;9.182;2023-07-24T12:35:03;23.90;64.40
20066;DHT22;10193;48.884;9.182;2023-07-24T12:37:30;23.80;64.50
20066;DHT22;10193;48.884;9.182;2023-07-24T12:39:57;23.80;64.50
20066;DHT22;10193;48.884;9.182;2023-07-24T12:42:23;23.70;64.50
20066;DHT22;10193;48.884;9.182;2023-07-24T12:44:50;23.70;64.70
20066;DHT22;10193;48.884;9.182;2023-07-24T12:47:17;23.60;65.00
20066;DHT22;10193;48.884;9.182;2023-07-24T12:49:43;23.60;65.20
20066;DHT22;10193;48.884;9.182;2023-07-24T12:52:11;23.50;65.30
20066;DHT22;10193;48.884;9.182;2023-07-24T12:54:38;23.50;65.40
20066;DHT22;10193;48.884;9.182;2023-07-24T12:57:05;23.50;65.50
20066;DHT22;10193;48.884;9.182;2023-07-24T12:59:32;23.50;65.60
20066;DHT22;10193;48.884;9.182;2023-07-24T13:01:59;23.50;65.80
20066;DHT22;10193;48.884;9.182;2023-07-24T13:04:26;23.50;65.90
20066;DHT22;10193;48.884;9.182;2023-07-24T13:06:52;23.50;66.00
20066;DHT22;10193;48.884;9.182;2023-07-24T13:09:20;23.50;66.30
20066;DHT22;10193;48.884;9.182;2023-07-24T13:11:49;23.50;66.50
20066;DHT22;10193;48.884;9.182;2023-07-24T13:14:17;23.50;66.60
20066;DHT22;10193;48.884;9.182;2023-07-24T13:16:43;23.60;66.90
20066;DHT22;10193;48.884;9.182;2023-07-24T13:19:10;23.60;66.90
20066;DHT22;10193;48.884;9.182;2023-07-24T13:21:37;23.70;66.90
20066;DHT22;10193;48.884;9.182;2023-07-24T13:24:05;23.70;66.80
20066;DHT22;10193;48.884;9.182;2023-07-24T13:26:33;23.70;66.80
20066;DHT22;10193;48.884;9.182;2023-07-24T13:29:00;23.70;66.80
20066;DHT22;10193;48.884;9.182;2023-07-24T13:31:26;23.70;66.70
20066;DHT22;10193;48.884;9.182;2023-07-24T13:33:54;23.70;66.90
20066;DHT22;10193;48.884;9.182;2023-07-24T13:36:21;23.70;67.00
20066;DHT22;10193;48.884;9.182;2023-07-24T13:38:47;23.70;67.30
20066;DHT22;10193;48.884;9.182;2023-07-24T13:41:15;23.80;67.50
20066;DHT22;10193;48.884;9.182;2023-07-24T13:43:43;23.80;67.40
20066;DHT22;10193;48.884;9.182;2023-07-24T13:46:10;23.80;67.60
20066;DHT22;10193;48.884;9.182;2023-07-24T13:48:36;23.90;68.00
20066;DHT22;10193;48.884;9.182;2023-07-24T13:51:03;23.90;68.30
20066;DHT22;10193;48.884;9.182;2023-07-24T13:53:30;23.90;68.60
20066;DHT22;10193;48.884;9.182;2023-07-24T13:55:57;24.00;69.00
20066;DHT22;10193;48.884;9.182;2023-07-24T13:58:23;24.10;69.40
20066;DHT22;10193;48.884;9.182;2023-07-24T14:00:51;24.20;69.80
20066;DHT22;10193;48.884;9.182;2023-07-24T14:03:18;24.30;70.30
20066;DHT22;10193;48.884;9.182;2023-07-24T14:05:45;24.40;70.90
20066;DHT22;10193;48.884;9.182;2023-07-24T14:08:11;24.60;71.80
20066;DHT22;10193;48.884;9.182;2023-07-24T14:10:38;24.70;72.20
20066;DHT22;10193;48.884;9.182;2023-07-24T14:13:04;25.00;72.20
20066;DHT22;10193;48.884;9.182;2023-07-24T14:15:31;25.10;71.70
20066;DHT22;10193;48.884;9.182;2023-07-24T14:17:59;25.40;71.50
20066;DHT22;10193;48.884;9.182;2023-07-24T14:20:26;25.50;71.00
20066;DHT22;10193;48.884;9.182;2023-07-24T14:22:52;25.70;70.60
20066;DHT22;10193;48.884;9.182;2023-07-24T14:25:19;25.90;70.20
20066;DHT22;10193;48.884;9.182;2023-07-24T14:27:46;26.00;69.20
20066;DHT22;10193;48.884;9.182;2023-07-24T14:30:13;26.10;68.60
20066;DHT22;10193;48.884;9.182;2023-07-24T14:32:39;26.30;68.00
20066;DHT22;10193;48.884;9.182;2023-07-24T14:35:08;26.40;67.70
20066;DHT22;10193;48.884;9.182;2023-07-24T14:37:34;26.50;67.50
20066;DHT22;10193;48.884;9.182;2023-07-24T14:40:01;26.50;67.60
20066;DHT22;10193;48.884;9.182;2023-07-24T14:42:28;26.60;67.70
20066;DHT22;10193;48.884;9.182;2023-07-24T14:44:55;26.80;67.50
20066;DHT22;10193;48.884;9.182;2023-07-24T14:47:27;26.90;67.00
20066;DHT22;10193;48.884;9.182;2023-07-24T14:49:53;27.00;66.00
20066;DHT22;10193;48.884;9.182;2023-07-24T14:52:21;27.00;65.20
20066;DHT22;10193;48.884;9.182;2023-07-24T14:54:48;27.10;64.70
20066;DHT22;10193;48.884;9.182;2023-07-24T14:57:14;27.20;64.80
20066;DHT22;10193;48.884;9.182;2023-07-24T14:59:41;27.20;63.00
20066;DHT22;10193;48.884;9.182;2023-07-24T15:02:08;27.20;62.00
20066;DHT22;10193;48.884;9.182;2023-07-24T15:04:34;27.20;61.30
20066;DHT22;10193;48.884;9.182;2023-07-24T15:07:01;27.20;60.80
20066;DHT22;10193;48.884;9.182;2023-07-24T15:09:29;27.20;60.70
20066;DHT22;10193;48.884;9.182;2023-07-24T15:11:56;27.20;60.40
20066;DHT22;10193;48.884;9.182;2023-07-24T15:14:23;27.20;60.60
20066;DHT22;10193;48.884;9.182;2023-07-24T15:16:51;27.20;60.60
20066;DHT22;10193;48.884;9.182;2023-07-24T15:19:17;27.20;60.30
20066;DHT22;10193;48.884;9.182;2023-07-24T15:21:44;27.20;60.00
20066;DHT22;10193;48.884;9.182;2023-07-24T15:24:11;27.20;59.80
20066;DHT22;10193;48.884;9.182;2023-07-24T15:26:39;27.20;59.40
20066;DHT22;10193;48.884;9.182;2023-07-24T15:29:06;27.20;59.10
20066;DHT22;10193;48.884;9.182;2023-07-24T15:31:32;27.20;58.90